Time;durP1;ratioP1;P1;durP2;ratioP2;P2;SDS_P1;SDS_P2;PMS_P1;PMS_P2;Temp;Humidity;BMP_temperature;BMP_pressure;BME280_temperature;BME280_humidity;BME280_pressure;Samples;Min_cycle;Max_cycle;Signal;HPM_P1;HPM_P2
2024/03/20 00:01:17;;;;;;;4.53;4.00;;;;;;;11.32;68.20;95508.78;6178095;23;20478;-87
2024/03/20 00:03:56;;;;;;;4.00;3.63;;;;;;;11.38;67.63;95512.41;6156935;23;20189;-86
2024/03/20 00:09:37;;;;;;;5.53;4.73;;;;;;;11.22;68.98;95549.50;6153348;23;20185;-86
2024/03/20 00:15:26;;;;;;;6.97;4.03;;;;;;;11.13;69.13;95562.69;6177125;23;20548;-87
2024/03/20 00:17:58;;;;;;;5.90;4.20;;;;;;;11.02;69.43;95559.59;6179830;23;20189;-87
2024/03/20 00:20:52;;;;;;;;;;;;;;;;;;;;;
2024/03/20 00:23:40;;;;;;;6.57;4.50;;;;;;;10.96;69.56;95550.03;6180785;23;20181;-87
2024/03/20 00:26:07;;;;;;;5.67;4.63;;;;;;;10.93;69.51;95565.81;6157124;23;20618;-85
2024/03/20 00:28:33;;;;;;;5.30;4.80;;;;;;;10.87;69.77;95573.47;6180370;23;20621;-85
2024/03/20 00:31:01;;;;;;;4.93;4.23;;;;;;;10.77;70.29;95581.47;6179626;23;20201;-84
2024/03/20 00:33:29;;;;;;;6.50;4.50;;;;;;;10.83;70.07;95583.31;6178618;23;20228;-84
2024/03/20 00:35:55;;;;;;;6.97;4.40;;;;;;;10.91;69.95;95579.84;6179761;23;20178;-84
2024/03/20 00:38:21;;;;;;;4.50;4.10;;;;;;;10.90;69.79;95573.91;6179603;23;20274;-85
2024/03/20 00:40:48;;;;;;;4.60;4.17;;;;;;;10.93;69.69;95562.44;6178852;23;20205;-83
2024/03/20 00:43:14;;;;;;;4.57;4.07;;;;;;;10.90;69.21;95545.56;6179639;23;20186;-85
2024/03/20 00:45:41;;;;;;;4.77;4.30;;;;;;;10.91;69.09;95548.94;6179290;23;20186;-85
2024/03/20 00:48:08;;;;;;;6.13;4.30;;;;;;;10.85;69.10;95542.72;6179169;23;20170;-84
2024/03/20 00:50:36;;;;;;;4.60;4.20;;;;;;;10.76;69.21;95553.31;6178217;23;20181;-84
2024/03/20 00:53:03;;;;;;;7.10;4.70;;;;;;;10.69;69.62;95553.22;6178877;23;20248;-85
2024/03/20 00:55:29;;;;;;;4.97;4.40;;;;;;;10.61;69.69;95559.25;6179604;23;20171;-84
2024/03/20 00:57:56;;;;;;;4.70;4.30;;;;;;;10.56;69.87;95559.00;6178833;23;20201;-85
2024/03/20 01:00:22;;;;;;;4.77;4.27;;;;;;;10.53;70.16;95558.53;6179550;23;20181;-85
2024/03/20 01:02:56;;;;;;;4.80;4.30;;;;;;;10.33;70.51;95565.97;6180001;23;20194;-84
2024/03/20 01:05:23;;;;;;;6.17;4.20;;;;;;;10.24;70.92;95585.03;6180268;23;20229;-84
2024/03/20 01:07:51;;;;;;;4.67;4.20;;;;;;;10.23;71.04;95586.78;6180082;23;20276;-85
2024/03/20 01:10:17;;;;;;;5.17;4.40;;;;;;;10.33;70.68;95579.63;6180100;23;20178;-84
2024/03/20 01:12:44;;;;;;;6.00;5.40;;;;;;;10.27;71.06;95584.69;6179992;23;20201;-85
2024/03/20 01:15:11;;;;;;;4.90;4.40;;;;;;;10.24;71.00;95588.38;6179837;23;20672;-84
2024/03/20 01:17:37;;;;;;;6.17;5.60;;;;;;;10.29;70.76;95586.09;6179635;23;20202;-84
2024/03/20 01:20:05;;;;;;;5.53;4.23;;;;;;;10.31;70.63;95579.00;6180296;23;20182;-84
2024/03/20 01:22:36;;;;;;;4.77;4.30;;;;;;;10.18;70.97;95572.84;6179737;23;20200;-84
2024/03/20 01:25:04;;;;;;;4.40;4.00;;;;;;;10.08;71.20;95573.06;6179575;23;20180;-85
2024/03/20 01:27:30;;;;;;;4.57;4.17;;;;;;;10.06;71.31;95590.44;6179797;23;20257;-85
2024/03/20 01:29:57;;;;;;;5.00;4.20;;;;;;;9.98;71.76;95601.63;6180258;23;20181;-83
2024/03/20 01:32:23;;;;;;;5.67;4.60;;;;;;;10.05;71.65;95601.69;6179464;23;20244;-84
2024/03/20 01:34:50;;;;;;;4.80;4.40;;;;;;;10.07;71.63;95602.34;6179070;23;20178;-84
2024/03/20 01:37:17;;;;;;;5.20;4.70;;;;;;;10.06;71.57;95593.00;6179447;23;20254;-85
2024/03/20 01:39:43;;;;;;;4.40;4.00;;;;;;;10.13;71.29;95578.50;6179857;23;20181;-83
2024/03/20 01:42:11;;;;;;;4.50;4.10;;;;;;;10.16;71.03;95574.78;6179201;23;20198;-84
2024/03/20 01:44:38;;;;;;;4.90;4.23;;;;;;;10.19;70.64;95562.41;6179967;23;20626;-84
2024/03/20 01:47:04;;;;;;;7.73;4.00;;;;;;;10.13;70.67;95552.78;6179653;23;20491;-84
2024/03/20 01:49:31;;;;;;;4.57;4.17;;;;;;;10.16;71.14;95559.34;6179791;23;20178;-84
2024/03/20 01:51:59;;;;;;;5.17;4.33;;;;;;;10.15;70.83;95550.81;6178923;23;20533;-84
2024/03/20 01:54:25;;;;;;;6.83;4.43;;;;;;;10.20;70.70;95552.91;6178535;23;20215;-84
2024/03/20 01:56:54;;;;;;;5.27;4.60;;;;;;;10.16;70.64;95547.28;6179697;23;20236;-85
2024/03/20 01:59:22;;;;;;;5.07;4.23;;;;;;;10.13;71.40;95570.78;6179614;23;20178;-87
2024/03/20 02:01:48;;;;;;;4.67;4.27;;;;;;;10.07;71.76;95578.38;6178978;23;20201;-84
2024/03/20 02:04:15;;;;;;;4.67;4.27;;;;;;;10.07;72.07;95596.38;6179637;23;20175;-85
2024/03/20 02:06:41;;;;;;;6.27;4.13;;;;;;;10.08;71.87;95592.84;6180182;23;20190;-85
2024/03/20 02:09:09;;;;;;;4.33;3.70;;;;;;;10.13;71.83;95588.00;6179139;23;20549;-84
2024/03/20 02:11:35;;;;;;;6.30;4.17;;;;;;;10.17;71.69;95584.09;6178774;23;20283;-85
2024/03/20 02:14:02;;;;;;;4.70;4.10;;;;;;;10.17;71.51;95584.09;6179826;23;20170;-85
2024/03/20 02:16:30;;;;;;;4.90;4.07;;;;;;;10.18;71.56;95577.97;6179267;23;20178;-84
2024/03/20 02:18:57;;;;;;;4.57;4.13;;;;;;;10.08;71.97;95580.78;6179527;23;20202;-85
2024/03/20 02:21:25;;;;;;;4.70;4.23;;;;;;;10.01;72.31;95596.09;6179532;23;20197;-85
2024/03/20 02:23:52;;;;;;;5.07;4.27;;;;;;;10.04;72.46;95597.53;6179061;23;20186;-84
2024/03/20 02:26:19;;;;;;;4.77;4.27;;;;;;;10.02;72.15;95604.63;6179390;23;20174;-84
2024/03/20 02:28:47;;;;;;;4.60;4.20;;;;;;;9.98;72.48;95601.63;6179264;23;20167;-85
2024/03/20 02:31:14;;;;;;;4.57;3.90;;;;;;;9.92;72.85;95602.28;6179036;23;20228;-85
2024/03/20 02:33:44;;;;;;;5.10;3.83;;;;;;;9.93;72.71;95598.75;6178743;23;20180;-84
2024/03/20 02:36:11;;;;;;;4.13;3.73;;;;;;;9.83;72.73;95608.44;6179714;23;20178;-85
2024/03/20 02:38:42;;;;;;;4.13;3.73;;;;;;;9.78;72.93;95615.91;6178609;23;20194;-84
2024/03/20 02:41:11;;;;;;;4.83;3.90;;;;;;;9.76;73.49;95615.25;6179030;23;20198;-85
2024/03/20 02:43:37;;;;;;;5.13;4.13;;;;;;;9.82;72.99;95624.84;6178709;23;20170;-85
2024/03/20 02:46:04;;;;;;;5.23;3.67;;;;;;;9.86;72.92;95612.44;6179173;23;20182;-85
2024/03/20 02:48:30;;;;;;;4.33;3.63;;;;;;;9.90;72.71;95600.84;6179676;23;20174;-85
2024/03/20 02:50:57;;;;;;;4.27;3.87;;;;;;;9.84;72.58;95596.38;6178785;23;20198;-84
2024/03/20 02:53:23;;;;;;;4.80;3.67;;;;;;;9.81;72.74;95602.69;6179154;23;20186;-85
2024/03/20 02:55:51;;;;;;;3.93;3.53;;;;;;;9.79;73.22;95606.41;6179251;23;20166;-85
2024/03/20 02:58:17;;;;;;;4.17;3.77;;;;;;;9.81;72.59;95600.13;6179887;23;20197;-85
2024/03/20 03:00:44;;;;;;;5.93;4.27;;;;;;;9.83;72.20;95593.03;6178590;23;20178;-85
2024/03/20 03:03:10;;;;;;;3.47;3.17;;;;;;;9.86;72.00;95587.53;6179443;23;20187;-85
2024/03/20 03:05:37;;;;;;;3.90;3.20;;;;;;;9.83;72.08;95581.94;6179013;23;20650;-85
2024/03/20 03:08:04;;;;;;;3.90;3.40;;;;;;;9.75;71.93;95582.00;6178835;23;20178;-84
2024/03/20 03:10:30;;;;;;;4.57;2.97;;;;;;;9.77;71.89;95587.78;6178590;23;20638;-84
2024/03/20 03:12:58;;;;;;;3.40;3.10;;;;;;;9.74;72.03;95583.78;6178433;23;20257;-84
2024/03/20 03:15:25;;;;;;;3.73;3.33;;;;;;;9.68;72.25;95582.69;6178628;23;20178;-85
2024/03/20 03:17:54;;;;;;;3.90;3.50;;;;;;;9.64;72.23;95589.13;6179373;23;20201;-84
2024/03/20 03:20:21;;;;;;;3.87;3.30;;;;;;;9.71;72.13;95589.25;6179133;23;20194;-84
2024/03/20 03:22:48;;;;;;;3.80;3.47;;;;;;;9.66;72.37;95591.53;6178449;23;20278;-84
2024/03/20 03:25:14;;;;;;;6.27;3.60;;;;;;;9.65;71.90;95580.44;6178808;23;20634;-85
2024/03/20 03:27:41;;;;;;;3.87;3.47;;;;;;;9.59;72.11;95578.56;6179433;23;20185;-84
2024/03/20 03:30:11;;;;;;;4.30;3.00;;;;;;;9.62;72.19;95593.63;6178309;23;20182;-85
2024/03/20 03:32:39;;;;;;;3.50;3.20;;;;;;;9.61;71.85;95575.84;6178940;23;20525;-84
2024/03/20 03:35:06;;;;;;;4.23;3.57;;;;;;;9.59;71.71;95570.88;6178607;23;20174;-85
2024/03/20 03:37:33;;;;;;;3.47;3.10;;;;;;;9.63;71.79;95577.25;6179258;23;20174;-85
2024/03/20 03:40:05;;;;;;;3.80;3.33;;;;;;;9.64;71.43;95571.13;6178781;23;20669;-85
2024/03/20 03:42:32;;;;;;;3.70;3.30;;;;;;;9.63;70.96;95561.00;6178590;23;20704;-84
2024/03/20 03:44:59;;;;;;;4.23;3.67;;;;;;;9.59;70.80;95554.63;6177587;23;20181;-85
2024/03/20 03:47:29;;;;;;;3.87;3.47;;;;;;;9.56;70.58;95549.84;6179184;23;20178;-85
2024/03/20 03:49:56;;;;;;;5.60;3.37;;;;;;;9.58;70.55;95553.03;6179520;23;20170;-84
2024/03/20 03:52:22;;;;;;;4.30;3.20;;;;;;;9.52;70.63;95548.56;6179875;23;20198;-85
2024/03/20 03:54:49;;;;;;;5.83;3.57;;;;;;;9.44;70.81;95551.19;6180667;23;20549;-84
2024/03/20 03:57:15;;;;;;;3.43;3.07;;;;;;;9.44;70.55;95562.25;6181215;23;20176;-85
2024/03/20 03:59:42;;;;;;;4.17;3.13;;;;;;;9.45;70.43;95547.66;6180073;23;20211;-85
2024/03/20 04:02:08;;;;;;;4.27;3.50;;;;;;;9.31;70.37;95544.84;6179639;23;20202;-84
2024/03/20 04:04:36;;;;;;;3.50;3.00;;;;;;;9.26;70.54;95547.09;6180349;23;20170;-85
2024/03/20 04:07:03;;;;;;;4.60;2.97;;;;;;;9.20;70.86;95564.97;6180873;23;20175;-85
2024/03/20 04:09:30;;;;;;;4.33;3.23;;;;;;;9.20;70.85;95570.13;6181445;23;20173;-85
2024/03/20 04:11:56;;;;;;;3.50;3.20;;;;;;;9.15;71.00;95573.19;6180321;23;20209;-84
2024/03/20 04:14:23;;;;;;;5.60;3.40;;;;;;;9.13;71.33;95580.25;6180124;23;20177;-85
2024/03/20 04:16:49;;;;;;;4.07;3.30;;;;;;;9.12;71.25;95578.66;6180482;23;20170;-85
2024/03/20 04:19:15;;;;;;;4.90;3.40;;;;;;;9.07;71.46;95588.63;6180346;23;20228;-85
2024/03/20 04:21:43;;;;;;;3.67;3.33;;;;;;;8.89;71.99;95608.59;6179089;23;20206;-84
2024/03/20 04:24:10;;;;;;;3.50;3.10;;;;;;;8.84;72.89;95636.53;6180302;23;20646;-84
2024/03/20 04:26:36;;;;;;;3.93;3.50;;;;;;;8.80;73.17;95655.81;6180694;23;20225;-86
2024/03/20 04:29:03;;;;;;;3.50;3.20;;;;;;;8.84;73.54;95657.09;6180347;23;20178;-87
2024/03/20 04:31:29;;;;;;;3.80;3.47;;;;;;;8.81;73.42;95660.78;6179795;23;20198;-83
2024/03/20 04:33:56;;;;;;;4.37;3.40;;;;;;;8.88;73.34;95658.34;6178897;23;20185;-84
2024/03/20 04:36:22;;;;;;;3.93;3.23;;;;;;;8.94;72.92;95647.41;6179944;23;20228;-85
2024/03/20 04:38:50;;;;;;;3.70;3.17;;;;;;;8.96;72.57;95630.88;6180710;23;20198;-85
2024/03/20 04:41:16;;;;;;;4.70;3.37;;;;;;;8.99;72.36;95634.88;6179950;23;20269;-84
2024/03/20 04:43:43;;;;;;;3.87;3.20;;;;;;;9.01;72.22;95617.56;6179679;23;20181;-84
2024/03/20 04:46:09;;;;;;;4.03;3.40;;;;;;;9.07;71.97;95610.94;6180742;23;20182;-85
2024/03/20 04:48:36;;;;;;;7.10;3.57;;;;;;;9.09;71.51;95602.09;6181380;23;20171;-85
2024/03/20 04:51:02;;;;;;;3.30;3.00;;;;;;;9.07;71.26;95591.19;6179376;23;20193;-84
2024/03/20 04:53:29;;;;;;;4.60;3.40;;;;;;;8.95;71.22;95585.63;6180472;23;20185;-85
2024/03/20 04:55:57;;;;;;;3.40;3.10;;;;;;;8.95;71.28;95595.09;6180393;23;20185;-84
2024/03/20 04:58:23;;;;;;;4.40;3.80;;;;;;;8.81;71.72;95606.88;6180483;23;20205;-84
2024/03/20 05:00:50;;;;;;;7.17;4.63;;;;;;;8.83;71.77;95612.63;6180978;23;20194;-86
2024/03/20 05:03:17;;;;;;;6.57;4.30;;;;;;;8.84;71.76;95605.72;6181369;23;20185;-86
2024/03/20 05:05:43;;;;;;;4.90;4.40;;;;;;;8.74;72.44;95623.06;6180210;23;20177;-84
2024/03/20 05:08:11;;;;;;;6.10;4.10;;;;;;;8.75;72.15;95629.81;6181604;23;20826;-85
2024/03/20 05:10:38;;;;;;;4.33;3.93;;;;;;;8.71;72.31;95621.63;6181784;23;20189;-84
2024/03/20 05:13:06;;;;;;;3.83;3.33;;;;;;;8.62;72.52;95628.56;6181698;23;20185;-83
2024/03/20 05:15:32;;;;;;;4.97;3.40;;;;;;;8.56;72.59;95624.06;6181842;23;20410;-84
2024/03/20 05:17:58;;;;;;;7.60;3.40;;;;;;;8.61;72.23;95626.97;6181406;23;20221;-84
2024/03/20 05:20:25;;;;;;;5.43;3.20;;;;;;;8.70;72.23;95620.03;6181590;23;20182;-83
2024/03/20 05:22:50;;;;;;;6.40;3.20;;;;;;;8.62;72.30;95614.94;6181733;23;20198;-85
2024/03/20 05:25:17;;;;;;;4.77;3.17;;;;;;;8.65;71.89;95606.91;6181530;23;20175;-84
2024/03/20 05:27:43;;;;;;;5.43;2.90;;;;;;;8.69;72.07;95615.06;6180768;23;20232;-83
2024/03/20 05:30:12;;;;;;;4.30;3.30;;;;;;;8.79;71.96;95615.69;6181034;23;20174;-84
2024/03/20 05:32:38;;;;;;;4.37;3.73;;;;;;;8.69;72.30;95615.84;6180704;23;20190;-85
2024/03/20 05:35:05;;;;;;;4.97;3.23;;;;;;;8.77;71.90;95612.47;6180045;23;20181;-85
2024/03/20 05:37:34;;;;;;;4.10;3.70;;;;;;;8.79;71.81;95610.56;6180961;23;20175;-84
2024/03/20 05:40:00;;;;;;;5.10;3.37;;;;;;;8.83;71.94;95612.63;6181838;23;20674;-85
2024/03/20 05:42:26;;;;;;;3.77;3.03;;;;;;;8.68;72.14;95611.69;6180913;23;20198;-83
2024/03/20 05:44:52;;;;;;;4.80;3.17;;;;;;;8.65;73.16;95648.78;6180603;23;20185;-84
2024/03/20 05:47:20;;;;;;;3.50;2.73;;;;;;;8.98;86.70;95926.03;6182151;23;20175;-85
2024/03/20 05:49:57;;;;;;;3.00;2.70;;;;;;;9.60;85.58;95919.50;6185360;23;20225;-88
2024/03/20 05:55:27;;;;;;;3.13;2.50;;;;;;;9.89;71.54;95540.09;6178868;23;20493;-87
2024/03/20 05:58:11;;;;;;;4.27;2.80;;;;;;;9.78;71.51;95538.75;6180579;23;20174;-87
2024/03/20 06:00:51;;;;;;;4.07;2.93;;;;;;;9.63;71.29;95540.44;6182044;23;20166;-87
2024/03/20 06:03:28;;;;;;;3.70;3.13;;;;;;;9.47;72.11;95549.06;6180820;23;20169;-86
2024/03/20 06:06:14;;;;;;;5.13;3.03;;;;;;;9.34;72.81;95577.09;6179918;23;20184;-86
2024/03/20 06:08:57;;;;;;;3.67;3.00;;;;;;;9.40;72.62;95583.34;6180718;23;20189;-86
2024/03/20 06:11:26;;;;;;;5.87;3.23;;;;;;;9.31;72.83;95598.00;6179779;23;20597;-86
2024/03/20 06:13:59;;;;;;;4.37;3.40;;;;;;;9.39;72.71;95617.72;6182277;23;20177;-86
2024/03/20 06:16:40;;;;;;;4.53;3.60;;;;;;;9.46;73.35;95631.47;6180344;23;20701;-86
2024/03/20 06:19:08;;;;;;;6.00;2.73;;;;;;;9.46;73.09;95618.63;6180847;23;20237;-87
2024/03/20 06:21:41;;;;;;;4.37;2.77;;;;;;;9.46;73.82;95652.84;6180316;23;20191;-87
2024/03/20 06:24:15;;;;;;;6.00;2.67;;;;;;;9.58;75.62;95708.06;6181018;23;20174;-87
2024/03/20 06:27:09;;;;;;;;;;;;;;;;;;;;;
2024/03/20 06:29:45;;;;;;;4.47;2.73;;;;;;;9.69;72.12;95598.91;6180402;23;20151;-86
2024/03/20 06:32:20;;;;;;;3.73;2.50;;;;;;;9.73;71.80;95596.81;6179776;23;20248;-86
2024/03/20 06:34:49;;;;;;;3.40;2.40;;;;;;;9.78;73.55;95649.31;6179029;23;20174;-86
2024/03/20 06:37:19;;;;;;;5.03;2.83;;;;;;;9.95;72.71;95642.31;6179579;23;20167;-87
2024/03/20 06:39:46;;;;;;;6.33;2.93;;;;;;;10.10;71.15;95590.91;6180092;23;20276;-87
2024/03/20 06:42:21;;;;;;;5.13;2.57;;;;;;;10.27;70.15;95562.31;6180123;23;20301;-87
2024/03/20 06:44:58;;;;;;;4.10;2.63;;;;;;;10.53;70.19;95561.13;6179512;23;20173;-87
2024/03/20 06:47:37;;;;;;;7.40;4.50;;;;;;;10.67;68.45;95495.94;6178261;23;20178;-86
2024/03/20 06:52:57;;;;;;;3.43;2.80;;;;;;;10.89;67.14;95429.84;6174896;23;20210;-86
2024/03/20 06:55:36;;;;;;;2.87;2.30;;;;;;;11.15;66.50;95417.25;6179829;23;20216;-87
2024/03/20 06:58:07;;;;;;;3.93;2.60;;;;;;;11.29;65.63;95393.19;6179527;23;20720;-86
2024/03/20 07:00:33;;;;;;;4.07;2.53;;;;;;;11.42;65.55;95364.13;6179110;23;20266;-86
2024/03/20 07:03:22;;;;;;;3.13;2.27;;;;;;;11.63;65.21;95373.59;6179810;23;20182;-86
2024/03/20 07:05:51;;;;;;;4.27;2.57;;;;;;;11.82;64.63;95351.53;6179081;23;20185;-86
2024/03/20 07:08:41;;;;;;;3.40;2.83;;;;;;;11.90;63.82;95308.34;6179787;23;20166;-87
2024/03/20 07:11:32;;;;;;;4.17;3.13;;;;;;;12.18;63.61;95310.03;6179529;23;20198;-87
2024/03/20 07:14:07;;;;;;;2.70;2.50;;;;;;;12.32;63.95;95322.78;6180358;23;20179;-86
2024/03/20 07:16:59;;;;;;;2.97;2.60;;;;;;;12.47;61.67;95249.56;6179882;23;20173;-86
2024/03/20 07:19:33;;;;;;;4.90;2.50;;;;;;;12.46;61.90;95248.75;6179990;23;20197;-87
2024/03/20 07:22:14;;;;;;;2.60;2.40;;;;;;;12.69;61.91;95258.72;6180589;23;20260;-87
2024/03/20 07:25:03;;;;;;;3.30;2.57;;;;;;;12.97;60.71;95214.59;6183589;23;20602;-88
2024/03/20 07:27:31;;;;;;;3.80;2.60;;;;;;;13.26;60.67;95203.88;6182418;23;20154;-88
2024/03/20 07:30:00;;;;;;;3.67;2.37;;;;;;;13.54;60.64;95213.94;6181815;23;20174;-88
2024/03/20 07:45:39;;;;;;;4.00;2.67;;;;;;;14.51;55.30;94985.72;6238877;23;20620;-88
2024/03/20 07:48:08;;;;;;;4.18;2.30;;;;;;;14.91;56.10;95034.53;6240704;23;20605;-88
2024/03/20 07:50:35;;;;;;;2.40;2.20;;;;;;;14.96;54.79;94967.28;6242209;22;20646;-88
2024/03/20 07:53:05;;;;;;;2.30;2.00;;;;;;;15.21;54.86;94965.34;6242424;23;20183;-88
2024/03/20 07:55:34;;;;;;;6.20;2.10;;;;;;;15.52;53.61;94932.41;6242505;23;20173;-87
2024/03/20 07:58:02;;;;;;;3.30;1.92;;;;;;;15.51;53.37;94910.06;6244319;23;20177;-86
2024/03/20 08:00:32;;;;;;;2.85;2.17;;;;;;;15.64;52.84;94877.94;6247082;23;20227;-87
2024/03/20 08:03:02;;;;;;;3.45;2.20;;;;;;;15.86;52.59;94871.97;6243577;22;20215;-88
2024/03/20 08:05:29;;;;;;;4.28;2.33;;;;;;;15.86;51.98;94834.84;6241830;23;20192;-87
2024/03/20 08:08:01;;;;;;;4.15;2.58;;;;;;;15.60;52.96;94879.41;6242290;23;20610;-88
2024/03/20 08:10:51;;;;;;;6.25;2.55;;;;;;;15.67;51.92;94835.97;6243003;23;20240;-88
2024/03/20 08:16:23;;;;;;;5.63;2.53;;;;;;;16.50;51.43;94833.00;6242425;23;20219;-88
2024/03/20 08:19:06;;;;;;;4.68;2.53;;;;;;;16.85;50.83;94827.69;6242048;23;20173;-87
2024/03/20 08:21:37;;;;;;;3.17;2.15;;;;;;;17.01;49.26;94719.50;6242745;22;20197;-87
2024/03/20 08:24:16;;;;;;;2.63;2.42;;;;;;;16.98;49.53;94741.56;6243521;23;20246;-86
2024/03/20 08:26:43;;;;;;;4.63;2.45;;;;;;;17.14;49.57;94751.19;6243750;23;20161;-87
2024/03/20 08:29:09;;;;;;;3.45;2.47;;;;;;;17.49;49.71;94776.16;6241717;23;20227;-88
2024/03/20 08:31:47;;;;;;;2.20;2.00;;;;;;;17.39;47.46;94623.25;6242296;22;20197;-87
2024/03/20 08:34:16;;;;;;;8.27;2.50;;;;;;;17.37;47.24;94601.13;6240768;23;20184;-88
2024/03/20 08:36:52;;;;;;;2.47;2.00;;;;;;;17.67;47.88;94677.00;6240670;23;20253;-87
2024/03/20 08:39:26;;;;;;;2.47;2.20;;;;;;;17.78;46.70;94591.97;6241693;23;20176;-87
2024/03/20 08:41:58;;;;;;;3.92;2.20;;;;;;;17.82;45.39;94535.78;6244226;22;20194;-87
2024/03/20 08:44:24;;;;;;;2.65;2.42;;;;;;;17.86;47.19;94602.75;6244943;23;20181;-88
2024/03/20 08:46:52;;;;;;;4.38;2.80;;;;;;;18.10;46.59;94592.78;6243399;23;20183;-87
2024/03/20 08:49:20;;;;;;;2.55;2.35;;;;;;;18.38;47.02;94617.78;6243625;23;20171;-88
2024/03/20 08:51:47;;;;;;;7.10;2.70;;;;;;;18.52;45.16;94519.88;6243502;22;20668;-87
2024/03/20 08:54:15;;;;;;;3.85;2.58;;;;;;;18.23;45.29;94514.22;6244104;23;20169;-87
2024/03/20 08:56:46;;;;;;;2.75;2.55;;;;;;;18.53;46.49;94617.13;6244307;23;20200;-87
2024/03/20 08:59:24;;;;;;;3.15;2.50;;;;;;;18.88;46.22;94625.22;6243302;23;20197;-87
2024/03/20 09:01:54;;;;;;;3.42;2.40;;;;;;;18.69;43.54;94438.13;6244651;22;20231;-88
2024/03/20 09:04:27;;;;;;;2.25;2.05;;;;;;;18.53;43.49;94406.75;6244062;23;20252;-88
2024/03/20 09:07:06;;;;;;;2.33;1.80;;;;;;;18.52;42.56;94394.75;6243810;23;20173;-87
2024/03/20 09:10:00;;;;;;;1.90;1.60;;;;;;;18.37;42.65;94370.47;6243260;23;20157;-87
2024/03/20 09:12:30;;;;;;;1.80;1.70;;;;;;;18.40;43.11;94385.59;6236694;22;20196;-87
2024/03/20 09:15:10;;;;;;;1.95;1.70;;;;;;;18.22;42.47;94353.72;6241197;23;20165;-88
2024/03/20 09:17:36;;;;;;;2.28;1.50;;;;;;;17.99;43.28;94382.78;6243848;23;20559;-84
2024/03/20 09:23:01;;;;;;;2.28;1.65;;;;;;;18.07;42.27;94363.28;6241380;22;20192;-86
2024/03/20 09:25:27;;;;;;;2.20;1.58;;;;;;;18.10;42.76;94379.19;6240915;23;20466;-85
2024/03/20 09:28:05;;;;;;;2.28;1.90;;;;;;;18.24;43.06;94392.56;6241770;23;20171;-86
2024/03/20 09:31:02;;;;;;;3.45;1.88;;;;;;;18.57;43.42;94441.72;6241308;23;20165;-87
2024/03/20 09:33:53;;;;;;;2.15;1.80;;;;;;;18.84;42.40;94394.66;6240146;23;20195;-86
2024/03/20 09:36:43;;;;;;;2.67;1.83;;;;;;;19.03;42.26;94373.31;6241572;23;20169;-87
2024/03/20 09:39:23;;;;;;;2.05;1.85;;;;;;;18.86;41.71;94337.00;6240260;23;20189;-86
2024/03/20 09:41:59;;;;;;;1.92;1.83;;;;;;;18.53;42.25;94333.75;6241033;22;20216;-86
2024/03/20 09:44:26;;;;;;;3.40;1.80;;;;;;;18.67;42.64;94388.84;6240237;23;20243;-86
2024/03/20 09:47:18;;;;;;;2.90;2.00;;;;;;;18.56;41.92;94355.94;6241432;23;20169;-87
2024/03/20 09:49:50;;;;;;;2.80;2.08;;;;;;;18.29;42.33;94356.06;6227887;23;20173;-86
2024/03/20 09:52:19;;;;;;;1.70;1.60;;;;;;;18.35;42.24;94362.09;6241553;22;20192;-86
2024/03/20 09:54:57;;;;;;;1.73;1.45;;;;;;;18.56;42.86;94376.78;6241779;23;20252;-86
2024/03/20 09:57:33;;;;;;;2.10;1.73;;;;;;;18.67;42.14;94339.31;6241391;23;20511;-86
2024/03/20 10:00:21;;;;;;;1.88;1.77;;;;;;;18.62;42.73;94381.03;6241748;23;20195;-86
2024/03/20 10:05:46;;;;;;;2.13;1.75;;;;;;;19.00;42.00;94360.78;6175847;23;20265;-86
2024/03/20 10:08:28;;;;;;;1.63;1.50;;;;;;;18.83;41.92;94343.53;6233895;23;20713;-86
2024/03/20 10:10:58;;;;;;;1.67;1.40;;;;;;;18.47;41.79;94329.56;6240388;22;20157;-85
2024/03/20 10:13:34;;;;;;;2.47;1.42;;;;;;;18.51;41.94;94335.06;6239823;23;20505;-87
2024/03/20 10:16:07;;;;;;;1.85;1.55;;;;;;;18.51;41.61;94309.78;6240242;23;20243;-87
2024/03/20 10:18:40;;;;;;;2.83;1.83;;;;;;;18.29;41.06;94257.84;6240742;23;20530;-85
2024/03/20 10:21:32;;;;;;;1.58;1.48;;;;;;;18.46;41.48;94288.94;6240071;22;20193;-87
2024/03/20 10:24:17;;;;;;;2.22;1.48;;;;;;;18.59;41.34;94295.50;6240433;23;20632;-86
2024/03/20 10:29:51;;;;;;;2.65;1.50;;;;;;;18.84;41.82;94341.72;6236128;23;20216;-86
2024/03/20 10:32:26;;;;;;;1.60;1.35;;;;;;;18.66;39.25;94168.28;6240043;22;20192;-87
2024/03/20 10:37:58;;;;;;;3.10;1.50;;;;;;;18.60;39.66;94179.75;6239699;23;20222;-86
2024/03/20 10:40:34;;;;;;;2.20;1.48;;;;;;;18.63;39.94;94194.88;6240191;23;20216;-86
2024/03/20 10:43:17;;;;;;;1.65;1.55;;;;;;;18.68;39.11;94162.78;6240064;22;20192;-86
2024/03/20 10:45:45;;;;;;;2.47;1.50;;;;;;;18.96;39.18;94168.25;6239519;23;20164;-86
2024/03/20 10:48:18;;;;;;;2.20;1.55;;;;;;;19.15;39.81;94207.63;6240398;23;20169;-86
2024/03/20 10:50:57;;;;;;;1.92;1.52;;;;;;;18.91;38.07;94070.97;6240281;22;20601;-87
2024/03/20 10:53:36;;;;;;;2.97;1.30;;;;;;;18.83;39.21;94179.25;6240908;23;20235;-86
2024/03/20 10:56:13;;;;;;;1.55;1.45;;;;;;;18.97;39.89;94208.97;6239966;23;20199;-85
2024/03/20 10:58:42;;;;;;;2.83;1.63;;;;;;;19.05;39.22;94173.72;6240151;23;20168;-86
2024/03/20 11:01:20;;;;;;;1.90;1.58;;;;;;;18.99;39.09;94138.25;6239664;22;20193;-86
2024/03/20 11:03:58;;;;;;;2.28;1.50;;;;;;;18.89;38.33;94106.97;6239959;23;20184;-86
2024/03/20 11:06:41;;;;;;;1.83;1.38;;;;;;;19.08;38.79;94128.84;6239947;23;20160;-86
2024/03/20 11:09:33;;;;;;;3.53;1.50;;;;;;;19.26;37.54;94093.56;6240436;23;20629;-86
2024/03/20 11:12:25;;;;;;;1.70;1.55;;;;;;;18.96;38.21;94076.19;6240541;22;20207;-87
2024/03/20 11:15:01;;;;;;;1.98;1.40;;;;;;;19.01;38.26;94104.09;6239293;23;20628;-86
2024/03/20 11:17:37;;;;;;;2.00;1.35;;;;;;;19.22;37.63;94085.50;6239589;23;20540;-86
2024/03/20 11:20:29;;;;;;;1.95;1.40;;;;;;;19.35;38.46;94091.97;6239538;23;20199;-87
2024/03/20 11:23:00;;;;;;;1.70;1.40;;;;;;;19.45;38.61;94130.28;6238071;22;20254;-87
2024/03/20 11:25:41;;;;;;;1.50;1.33;;;;;;;19.41;38.26;94111.78;6239436;23;20184;-86
2024/03/20 11:30:57;;;;;;;2.45;1.77;;;;;;;19.69;38.84;94160.00;6239850;22;20188;-85
2024/03/20 11:43:01;;;;;;;1.70;1.30;;;;;;;20.45;36.73;94039.31;6228829;22;20195;-85
2024/03/20 11:45:31;;;;;;;2.80;1.30;;;;;;;20.53;36.54;94023.06;6239473;23;20181;-85
2024/03/20 11:48:04;;;;;;;2.10;1.20;;;;;;;20.40;37.53;94075.22;6240337;23;20191;-85
2024/03/20 11:50:35;;;;;;;4.78;1.70;;;;;;;19.98;36.63;93995.53;6238279;23;20176;-86
2024/03/20 11:53:02;;;;;;;1.75;1.40;;;;;;;19.82;40.78;94190.00;6242450;22;20198;-82
2024/03/20 11:55:29;;;;;;;1.73;1.40;;;;;;;20.01;39.42;94190.94;6241747;23;20169;-85
2024/03/20 11:57:59;;;;;;;20.17;3.45;;;;;;;20.22;37.14;94074.78;6240220;23;20203;-85
2024/03/20 12:00:27;;;;;;;2.75;1.13;;;;;;;20.00;35.85;93936.75;6239622;23;20269;-84
2024/03/20 12:02:53;;;;;;;1.40;1.23;;;;;;;20.04;35.92;93949.22;6239846;22;20586;-85
2024/03/20 12:05:24;;;;;;;1.50;1.27;;;;;;;20.26;35.75;93952.94;6239032;23;20176;-85
2024/03/20 12:07:55;;;;;;;1.70;1.58;;;;;;;20.41;34.83;93896.38;6240437;23;20170;-85
2024/03/20 12:10:31;;;;;;;2.58;1.35;;;;;;;20.15;35.02;93873.09;6240434;23;20153;-86
2024/03/20 12:12:59;;;;;;;1.60;1.17;;;;;;;20.10;35.17;93877.59;6241771;22;20201;-85
2024/03/20 12:15:27;;;;;;;1.55;1.40;;;;;;;20.17;35.08;93878.06;6241265;23;20222;-85
2024/03/20 12:17:54;;;;;;;2.15;1.15;;;;;;;20.20;35.78;93924.56;6241624;23;20262;-86
2024/03/20 12:20:20;;;;;;;1.88;1.25;;;;;;;20.47;35.36;93898.66;6240856;23;20204;-87
2024/03/20 12:23:06;;;;;;;1.25;1.15;;;;;;;20.71;35.47;93903.88;6241107;22;20741;-86
2024/03/20 12:25:36;;;;;;;2.15;1.27;;;;;;;20.74;34.87;93900.69;6241780;23;20183;-84
2024/03/20 12:28:29;;;;;;;1.88;1.30;;;;;;;20.84;35.17;93887.47;6241798;23;20635;-85
2024/03/20 12:30:56;;;;;;;1.67;1.30;;;;;;;20.87;34.37;93892.16;6241429;22;20161;-85
2024/03/20 12:33:43;;;;;;;1.30;1.20;;;;;;;20.63;35.09;93879.09;6240631;23;20222;-85
2024/03/20 12:36:09;;;;;;;1.42;1.33;;;;;;;20.43;34.79;93866.28;6241611;23;20204;-85
2024/03/20 12:38:37;;;;;;;1.67;1.48;;;;;;;20.33;35.18;93882.84;6240959;23;20172;-85
2024/03/20 12:41:25;;;;;;;5.38;2.03;;;;;;;20.20;35.23;93909.66;6241925;22;20275;-84
2024/03/20 12:43:52;;;;;;;1.80;1.50;;;;;;;20.11;36.04;93947.88;6241516;23;20236;-83
2024/03/20 12:46:18;;;;;;;1.70;1.60;;;;;;;20.31;36.82;94007.81;6241252;23;20569;-84
2024/03/20 12:48:47;;;;;;;1.83;1.30;;;;;;;20.58;37.31;94058.84;6241091;23;20690;-85
2024/03/20 12:51:20;;;;;;;1.85;1.52;;;;;;;20.79;37.60;94096.03;6241266;22;20695;-84